White, Minnesota
Current Conditions -  °F | °C
As of 4:11 PM on Thursday 23 Oct 2014 (Local Time) from KEVM Reporting Station
Clear Clear  
Wind Chill: 57°   Ceiling: Unl
Heat Index: 57°   Visibility: 10mi
Dew Point: 48°   Wind: 8mph
Humidity: 72%   Direction: 180°S
Pressure: 29.92"   Gusts: NA
Location:  47.4622°N, 92.1946°W
Report Text: KEVM 232111Z AUTO 18007KT 10SM CLR 14/09 A2992 RMK AO2
Loading
Personal Weather Stations






























Interactive Weather Map
Tropical Storm Tracking
New forecast layout! Learn more

10-Day Weather Forecast

Advertisements
Track Severe Weather on mobile